createdAt,value
2024-01-24T00:00:02.872Z,27.67
2024-01-24T00:00:16.531Z,28.60
2024-01-24T00:00:50.104Z,25.63
2024-01-24T00:01:23.017Z,27.75
2024-01-24T00:01:37.400Z,28.13
2024-01-24T00:01:50.334Z,24.40
2024-01-24T00:02:03.246Z,25.27
2024-01-24T00:02:16.104Z,27.00
2024-01-24T00:02:28.963Z,24.45
2024-01-24T00:02:41.922Z,22.60
2024-01-24T00:02:54.814Z,21.75
2024-01-24T00:03:07.809Z,20.48
2024-01-24T00:03:20.987Z,20.85
2024-01-24T00:03:35.342Z,25.08
2024-01-24T00:03:49.768Z,24.38
2024-01-24T00:04:03.102Z,22.55
2024-01-24T00:04:16.082Z,21.58
2024-01-24T00:04:29.367Z,21.75
2024-01-24T00:04:42.482Z,22.08
2024-01-24T00:04:55.320Z,21.20
2024-01-24T00:05:09.129Z,18.58
2024-01-24T00:05:22.060Z,18.77
2024-01-24T00:05:35.923Z,19.35
2024-01-24T00:05:48.877Z,21.70
2024-01-24T00:06:01.913Z,23.40
2024-01-24T00:06:14.932Z,22.67
2024-01-24T00:06:28.141Z,21.17
2024-01-24T00:06:41.051Z,20.80
2024-01-24T00:06:54.061Z,19.67
2024-01-24T00:07:07.318Z,21.23
2024-01-24T00:07:20.170Z,22.17
2024-01-24T00:07:32.985Z,24.10
2024-01-24T00:07:45.847Z,24.02
2024-01-24T00:07:59.751Z,23.30
2024-01-24T00:08:12.936Z,23.15
2024-01-24T00:08:25.855Z,23.10
2024-01-24T00:08:38.954Z,20.90
2024-01-24T00:08:52.280Z,19.88
2024-01-24T00:09:05.881Z,20.23
2024-01-24T00:09:18.867Z,20.75
2024-01-24T00:09:32.708Z,23.77
2024-01-24T00:09:45.749Z,23.52
2024-01-24T00:09:58.615Z,22.90
2024-01-24T00:10:13.539Z,21.55
2024-01-24T00:10:26.426Z,21.77
2024-01-24T00:10:39.712Z,24.88
2024-01-24T00:10:52.876Z,24.60
2024-01-24T00:11:05.981Z,22.70
2024-01-24T00:11:19.101Z,21.98
2024-01-24T00:11:32.118Z,25.20
2024-01-24T00:11:44.973Z,26.92
2024-01-24T00:11:58.159Z,26.80
2024-01-24T00:12:12.209Z,24.90
2024-01-24T00:12:25.352Z,25.88
2024-01-24T00:12:38.363Z,25.80
2024-01-24T00:12:51.678Z,23.67
2024-01-24T00:13:05.088Z,23.10
2024-01-24T00:13:18.041Z,22.92
2024-01-24T00:13:31.018Z,23.08
2024-01-24T00:13:43.968Z,22.80
2024-01-24T00:13:57.887Z,21.02
2024-01-24T00:14:11.864Z,18.92
2024-01-24T00:14:24.772Z,21.80
2024-01-24T00:14:37.926Z,26.00
2024-01-24T00:14:50.853Z,27.73
2024-01-24T00:15:04.030Z,24.58
2024-01-24T00:15:16.984Z,20.67
2024-01-24T00:15:30.220Z,22.40
2024-01-24T00:15:44.184Z,23.02
2024-01-24T00:15:57.111Z,23.75
2024-01-24T00:16:10.681Z,27.00
2024-01-24T00:16:23.956Z,27.63
2024-01-24T00:16:36.918Z,27.42
2024-01-24T00:16:49.801Z,25.88
2024-01-24T00:17:03.737Z,26.02
2024-01-24T00:17:16.782Z,25.95
2024-01-24T00:17:31.102Z,23.75
2024-01-24T00:17:44.076Z,23.70
2024-01-24T00:17:57.034Z,24.83
2024-01-24T00:18:10.338Z,22.92
2024-01-24T00:18:23.420Z,22.30
2024-01-24T00:18:37.801Z,23.65
2024-01-24T00:18:51.003Z,26.05
2024-01-24T00:19:04.172Z,26.67
2024-01-24T00:19:17.284Z,27.23
2024-01-24T00:19:30.452Z,28.30
2024-01-24T00:19:44.561Z,24.67
2024-01-24T00:19:57.456Z,24.08
2024-01-24T00:20:13.912Z,26.05
2024-01-24T00:20:26.996Z,27.30
2024-01-24T00:20:40.025Z,28.40
2024-01-24T00:20:54.447Z,26.88
2024-01-24T00:21:07.612Z,26.95
2024-01-24T00:21:20.688Z,26.73
2024-01-24T00:21:34.588Z,29.38
2024-01-24T00:21:47.505Z,30.58
2024-01-24T00:22:00.477Z,29.98
2024-01-24T00:22:15.549Z,27.83
2024-01-24T00:22:29.364Z,26.92
2024-01-24T00:22:42.318Z,26.73
2024-01-24T00:22:55.206Z,23.67
2024-01-24T00:23:08.067Z,26.35
2024-01-24T00:23:20.920Z,28.65
2024-01-24T00:23:34.825Z,28.23
2024-01-24T00:23:48.391Z,28.45
2024-01-24T00:24:01.221Z,27.75
2024-01-24T00:24:14.099Z,25.92
2024-01-24T00:24:27.394Z,27.58
2024-01-24T00:24:40.324Z,28.92
2024-01-24T00:24:53.295Z,29.30
2024-01-24T00:25:06.456Z,28.17
2024-01-24T00:25:20.352Z,27.27
2024-01-24T00:25:33.387Z,27.70
2024-01-24T00:25:46.271Z,26.88
2024-01-24T00:25:59.143Z,28.40
2024-01-24T00:26:12.168Z,31.17
2024-01-24T00:26:25.050Z,33.63
2024-01-24T00:26:39.169Z,32.92
2024-01-24T00:26:52.064Z,28.58
2024-01-24T00:27:06.524Z,26.60
2024-01-24T00:27:20.630Z,26.85
2024-01-24T00:27:33.661Z,26.90
2024-01-24T00:27:46.807Z,26.50
2024-01-24T00:27:59.743Z,24.65
2024-01-24T00:28:16.461Z,25.92
2024-01-24T00:28:31.020Z,26.23
2024-01-24T00:28:45.109Z,24.85
2024-01-24T00:28:59.007Z,27.98
2024-01-24T00:29:12.463Z,25.38
2024-01-24T00:29:25.341Z,25.00
2024-01-24T00:29:38.165Z,26.65
2024-01-24T00:29:51.029Z,26.85
2024-01-24T00:30:05.282Z,26.63
2024-01-24T00:30:18.364Z,27.83
2024-01-24T00:30:31.405Z,27.73
2024-01-24T00:30:46.038Z,28.55
2024-01-24T00:30:59.004Z,30.23
2024-01-24T00:31:14.477Z,28.00
2024-01-24T00:31:27.302Z,22.75
2024-01-24T00:31:40.523Z,21.70
2024-01-24T00:31:56.773Z,22.60
2024-01-24T00:32:09.697Z,24.80
2024-01-24T00:32:23.991Z,25.25
2024-01-24T00:32:37.086Z,27.27
2024-01-24T00:32:49.995Z,27.08
2024-01-24T00:33:05.896Z,26.55
2024-01-24T00:33:19.206Z,25.27
2024-01-24T00:33:32.302Z,24.13
2024-01-24T00:33:46.855Z,24.60
2024-01-24T00:34:00.141Z,24.77
2024-01-24T00:34:14.132Z,26.83
2024-01-24T00:34:27.093Z,25.42
2024-01-24T00:34:41.098Z,23.42
2024-01-24T00:34:54.103Z,23.92
2024-01-24T00:35:07.486Z,24.30
2024-01-24T00:35:20.703Z,24.98
2024-01-24T00:35:33.544Z,26.13
2024-01-24T00:35:47.818Z,25.58
2024-01-24T00:36:00.699Z,24.92
2024-01-24T00:36:13.632Z,26.08
2024-01-24T00:36:27.187Z,24.65
2024-01-24T00:36:40.432Z,22.73
2024-01-24T00:36:53.400Z,23.23
2024-01-24T00:37:06.284Z,24.05
2024-01-24T00:37:19.152Z,24.75
2024-01-24T00:37:32.376Z,27.42
2024-01-24T00:37:46.351Z,26.98
2024-01-24T00:37:59.317Z,26.63
2024-01-24T00:38:12.245Z,28.40
2024-01-24T00:38:25.169Z,28.77
2024-01-24T00:38:37.992Z,31.42
2024-01-24T00:38:51.209Z,31.52
2024-01-24T00:39:04.627Z,27.80
2024-01-24T00:39:18.356Z,25.05
2024-01-24T00:39:32.242Z,23.23
2024-01-24T00:39:48.054Z,23.27
2024-01-24T00:40:01.104Z,24.00
2024-01-24T00:40:14.208Z,23.10
2024-01-24T00:40:27.603Z,24.15
2024-01-24T00:40:40.503Z,25.23
2024-01-24T00:40:53.398Z,26.38
2024-01-24T00:41:06.272Z,26.45
2024-01-24T00:41:20.129Z,25.45
2024-01-24T00:41:32.996Z,24.35
2024-01-24T00:41:48.448Z,26.88
2024-01-24T00:42:01.891Z,28.38
2024-01-24T00:42:14.834Z,28.35
2024-01-24T00:42:28.479Z,29.73
2024-01-24T00:42:44.275Z,29.23
2024-01-24T00:42:58.342Z,24.85
2024-01-24T00:43:11.374Z,26.17
2024-01-24T00:43:24.550Z,29.60
2024-01-24T00:43:37.482Z,30.33
2024-01-24T00:43:50.385Z,31.02
2024-01-24T00:44:03.385Z,29.65
2024-01-24T00:44:16.331Z,28.65
2024-01-24T00:44:29.543Z,28.83
2024-01-24T00:44:44.722Z,27.70
2024-01-24T00:44:57.580Z,25.90
2024-01-24T00:45:12.828Z,26.20
2024-01-24T00:45:26.882Z,26.25
2024-01-24T00:45:39.927Z,27.70
2024-01-24T00:45:52.866Z,27.10
2024-01-24T00:46:06.337Z,27.60
2024-01-24T00:46:19.646Z,27.10
2024-01-24T00:46:32.546Z,28.48
2024-01-24T00:46:45.381Z,31.27
2024-01-24T00:46:59.348Z,33.42
2024-01-24T00:47:12.289Z,35.05
2024-01-24T00:47:25.245Z,31.77
2024-01-24T00:47:38.165Z,26.95
2024-01-24T00:47:51.128Z,26.65
2024-01-24T00:48:04.769Z,25.95
2024-01-24T00:48:18.247Z,24.25
2024-01-24T00:48:31.186Z,25.83
2024-01-24T00:48:44.252Z,26.70
2024-01-24T00:48:59.623Z,30.25
2024-01-24T00:49:14.034Z,33.10
2024-01-24T00:49:27.771Z,30.48
2024-01-24T00:49:40.814Z,25.92
2024-01-24T00:49:53.980Z,25.27
2024-01-24T00:50:08.198Z,28.20
2024-01-24T00:50:21.088Z,28.92
2024-01-24T00:50:35.891Z,28.38
2024-01-24T00:50:48.763Z,26.58
2024-01-24T00:51:02.641Z,25.88
2024-01-24T00:51:15.816Z,24.92
2024-01-24T00:51:28.725Z,24.45
2024-01-24T00:51:41.657Z,24.77
2024-01-24T00:51:54.530Z,27.02
2024-01-24T00:52:07.380Z,29.38
2024-01-24T00:52:21.275Z,30.73
2024-01-24T00:52:34.716Z,28.55
2024-01-24T00:52:53.081Z,28.70
2024-01-24T00:53:07.649Z,27.67
2024-01-24T00:53:23.653Z,27.27
2024-01-24T00:53:38.995Z,27.23
2024-01-24T00:53:53.221Z,26.05
2024-01-24T00:54:06.701Z,26.95
2024-01-24T00:54:19.637Z,27.10
2024-01-24T00:54:32.546Z,24.27
2024-01-24T00:54:45.489Z,24.13
2024-01-24T00:54:58.402Z,24.27
2024-01-24T00:55:11.712Z,26.55
2024-01-24T00:55:28.319Z,30.58
2024-01-24T00:55:41.375Z,31.52
2024-01-24T00:55:54.219Z,27.90
2024-01-24T00:56:07.435Z,26.73
2024-01-24T00:56:20.331Z,25.88
2024-01-24T00:56:33.230Z,26.33
2024-01-24T00:56:46.512Z,28.60
2024-01-24T00:56:59.469Z,28.83
2024-01-24T00:57:12.642Z,27.67
2024-01-24T00:57:25.575Z,27.73
2024-01-24T00:57:38.483Z,27.85
2024-01-24T00:57:52.478Z,27.48
2024-01-24T00:58:05.343Z,28.52
2024-01-24T00:58:18.793Z,30.10
2024-01-24T00:58:31.623Z,30.33
2024-01-24T00:58:44.618Z,31.02
2024-01-24T00:58:57.454Z,28.08
2024-01-24T00:59:10.413Z,28.45
2024-01-24T00:59:23.790Z,28.48
2024-01-24T00:59:37.727Z,27.90
2024-01-24T00:59:50.591Z,26.75
2024-01-24T01:00:05.371Z,25.35
2024-01-24T01:00:18.895Z,26.35
2024-01-24T01:00:31.880Z,24.63
2024-01-24T01:00:44.881Z,22.25
2024-01-24T01:00:57.950Z,23.05
2024-01-24T01:01:11.612Z,25.18
2024-01-24T01:01:24.606Z,27.30
2024-01-24T01:01:38.498Z,29.30
2024-01-24T01:01:51.736Z,26.73
2024-01-24T01:02:04.912Z,23.65
2024-01-24T01:02:18.223Z,22.67
2024-01-24T01:02:31.064Z,23.52
2024-01-24T01:02:44.451Z,24.95
2024-01-24T01:02:57.344Z,23.80
2024-01-24T01:03:10.507Z,26.45
2024-01-24T01:03:24.560Z,28.15
2024-01-24T01:03:38.338Z,24.38
2024-01-24T01:03:51.635Z,24.33
2024-01-24T01:04:06.096Z,25.40
2024-01-24T01:04:19.261Z,26.77
2024-01-24T01:04:32.248Z,27.77
2024-01-24T01:04:45.150Z,25.70
2024-01-24T01:04:58.062Z,25.08
2024-01-24T01:05:12.163Z,24.17
2024-01-24T01:05:26.232Z,24.13
2024-01-24T01:05:39.321Z,25.67
2024-01-24T01:05:52.287Z,24.70
2024-01-24T01:06:05.921Z,23.30
2024-01-24T01:06:18.812Z,23.40
2024-01-24T01:06:31.718Z,25.88
2024-01-24T01:06:44.980Z,27.58
2024-01-24T01:06:58.032Z,26.02
2024-01-24T01:07:11.196Z,25.25
2024-01-24T01:07:25.394Z,25.52
2024-01-24T01:07:38.297Z,27.77
2024-01-24T01:07:51.225Z,29.60
2024-01-24T01:08:04.914Z,28.20
2024-01-24T01:08:18.088Z,28.35
2024-01-24T01:08:30.932Z,27.83
2024-01-24T01:08:44.153Z,29.17
2024-01-24T01:08:57.039Z,30.67
2024-01-24T01:09:10.009Z,27.92
2024-01-24T01:09:24.045Z,25.30
2024-01-24T01:09:37.360Z,25.55
2024-01-24T01:09:50.309Z,23.83
2024-01-24T01:10:04.186Z,25.70
2024-01-24T01:10:17.245Z,29.10
2024-01-24T01:10:30.240Z,29.38
2024-01-24T01:10:43.569Z,27.52
2024-01-24T01:10:57.416Z,27.63
2024-01-24T01:11:10.313Z,26.67
2024-01-24T01:11:23.258Z,25.77
2024-01-24T01:11:36.108Z,27.67
2024-01-24T01:11:49.005Z,29.25
2024-01-24T01:12:01.955Z,27.23
2024-01-24T01:12:14.918Z,26.77
2024-01-24T01:12:27.914Z,26.58
2024-01-24T01:12:40.837Z,26.40
2024-01-24T01:12:55.153Z,25.02
2024-01-24T01:13:08.226Z,25.30
2024-01-24T01:13:21.136Z,24.85
2024-01-24T01:13:34.419Z,24.73
2024-01-24T01:13:47.394Z,23.60
2024-01-24T01:14:00.593Z,23.02
2024-01-24T01:14:13.572Z,23.83
2024-01-24T01:14:26.472Z,25.75
2024-01-24T01:14:39.327Z,25.73
2024-01-24T01:14:52.279Z,25.27
2024-01-24T01:15:07.364Z,27.65
2024-01-24T01:15:20.339Z,27.67
2024-01-24T01:15:33.355Z,23.92
2024-01-24T01:15:46.361Z,24.13
2024-01-24T01:15:59.336Z,23.77
2024-01-24T01:16:12.198Z,22.33
2024-01-24T01:16:25.065Z,23.23
2024-01-24T01:16:37.958Z,24.90
2024-01-24T01:16:51.003Z,23.35
2024-01-24T01:17:04.144Z,25.42
2024-01-24T01:17:18.010Z,27.58
2024-01-24T01:17:31.198Z,26.02
2024-01-24T01:17:44.138Z,24.40
2024-01-24T01:17:57.020Z,22.67
2024-01-24T01:18:10.073Z,23.05
2024-01-24T01:18:23.089Z,23.77
2024-01-24T01:18:36.422Z,25.30
2024-01-24T01:18:50.359Z,25.17
2024-01-24T01:19:03.387Z,22.92
2024-01-24T01:19:17.987Z,23.48
2024-01-24T01:19:30.920Z,23.05
2024-01-24T01:19:43.783Z,24.42
2024-01-24T01:19:56.729Z,27.95
2024-01-24T01:20:10.772Z,29.92
2024-01-24T01:20:23.679Z,25.73
2024-01-24T01:20:36.577Z,25.60
2024-01-24T01:20:49.721Z,27.27
2024-01-24T01:21:03.608Z,26.10
2024-01-24T01:21:16.545Z,24.33
2024-01-24T01:21:29.536Z,25.60
2024-01-24T01:21:42.622Z,26.33
2024-01-24T01:21:55.594Z,24.88
2024-01-24T01:22:08.804Z,23.60
2024-01-24T01:22:21.948Z,24.80
2024-01-24T01:22:34.853Z,25.67
2024-01-24T01:22:48.022Z,25.65
2024-01-24T01:23:01.951Z,24.27
2024-01-24T01:23:14.826Z,23.98
2024-01-24T01:23:27.736Z,24.13
2024-01-24T01:23:41.235Z,24.67
2024-01-24T01:23:54.096Z,23.83
2024-01-24T01:24:07.141Z,24.77
2024-01-24T01:24:20.590Z,23.73
2024-01-24T01:24:33.555Z,23.20
2024-01-24T01:24:46.569Z,23.67
2024-01-24T01:25:00.933Z,24.20
2024-01-24T01:25:14.168Z,25.08
2024-01-24T01:25:27.394Z,24.58
2024-01-24T01:25:40.283Z,22.85
2024-01-24T01:25:53.818Z,23.05
2024-01-24T01:26:06.735Z,24.80
2024-01-24T01:26:20.434Z,25.88
2024-01-24T01:26:33.597Z,24.95
2024-01-24T01:26:47.608Z,26.85
2024-01-24T01:27:00.554Z,27.08
2024-01-24T01:27:13.756Z,25.83
2024-01-24T01:27:27.029Z,28.80
2024-01-24T01:27:40.186Z,28.45
2024-01-24T01:27:53.294Z,24.00
2024-01-24T01:28:06.984Z,23.95
2024-01-24T01:28:19.933Z,25.58
2024-01-24T01:28:32.776Z,26.98
2024-01-24T01:28:46.774Z,24.73
2024-01-24T01:28:59.745Z,20.65
2024-01-24T01:29:12.753Z,20.88
2024-01-24T01:29:25.661Z,26.00
2024-01-24T01:29:38.687Z,25.70
2024-01-24T01:29:51.546Z,24.30
2024-01-24T01:30:05.194Z,24.38
2024-01-24T01:30:18.409Z,22.55
2024-01-24T01:30:32.082Z,21.92
2024-01-24T01:30:46.527Z,21.80
2024-01-24T01:30:59.733Z,20.98
2024-01-24T01:31:12.603Z,23.70
2024-01-24T01:31:25.779Z,24.48
2024-01-24T01:31:38.705Z,22.02
2024-01-24T01:31:51.534Z,22.77
2024-01-24T01:32:05.040Z,24.15
2024-01-24T01:32:31.303Z,25.38
2024-01-24T01:32:45.585Z,23.60
2024-01-24T01:32:58.501Z,23.35
2024-01-24T01:33:11.610Z,24.33
2024-01-24T01:33:24.751Z,24.02
2024-01-24T01:33:37.931Z,23.38
2024-01-24T01:33:51.019Z,23.15
2024-01-24T01:34:05.497Z,23.17
2024-01-24T01:34:19.825Z,22.35
2024-01-24T01:34:34.076Z,22.60
2024-01-24T01:34:47.243Z,23.05
2024-01-24T01:35:01.124Z,24.50
2024-01-24T01:35:15.047Z,27.63
2024-01-24T01:35:28.136Z,25.33
2024-01-24T01:35:41.214Z,23.13
2024-01-24T01:35:57.909Z,22.65
2024-01-24T01:36:23.375Z,21.83
2024-01-24T01:36:36.800Z,22.90
2024-01-24T01:36:49.732Z,21.58
2024-01-24T01:37:02.737Z,22.40
2024-01-24T01:37:15.676Z,21.05
2024-01-24T01:37:28.544Z,21.25
2024-01-24T01:37:41.799Z,23.40
2024-01-24T01:37:54.687Z,22.90
2024-01-24T01:38:07.585Z,24.94
2024-01-24T01:38:21.744Z,23.60
2024-01-24T01:38:34.618Z,22.50
2024-01-24T01:38:47.691Z,22.08
2024-01-24T01:39:00.606Z,22.27
2024-01-24T01:39:13.837Z,21.17
2024-01-24T01:39:26.739Z,21.48
2024-01-24T01:39:39.689Z,20.67
2024-01-24T01:39:53.315Z,21.98
2024-01-24T01:40:08.153Z,24.25
2024-01-24T01:40:22.468Z,23.63
2024-01-24T01:40:35.447Z,22.00
2024-01-24T01:40:48.399Z,23.73
2024-01-24T01:41:01.261Z,23.17
2024-01-24T01:41:14.263Z,23.60
2024-01-24T01:41:27.135Z,23.45
2024-01-24T01:41:40.413Z,24.88
2024-01-24T01:41:53.636Z,22.67
2024-01-24T01:42:06.509Z,20.42
2024-01-24T01:42:20.469Z,19.38
2024-01-24T01:42:34.012Z,20.83
2024-01-24T01:42:47.084Z,21.70
2024-01-24T01:43:00.025Z,25.02
2024-01-24T01:43:15.004Z,25.05
2024-01-24T01:43:27.909Z,24.80
2024-01-24T01:43:40.778Z,24.63
2024-01-24T01:43:53.576Z,24.77
2024-01-24T01:44:07.911Z,22.90
2024-01-24T01:44:20.852Z,22.13
2024-01-24T01:44:36.929Z,22.50
2024-01-24T01:44:50.071Z,20.55
2024-01-24T01:45:04.888Z,20.42
2024-01-24T01:45:18.059Z,21.25
2024-01-24T01:45:31.439Z,20.98
2024-01-24T01:45:44.590Z,23.92
2024-01-24T01:46:05.975Z,24.90
2024-01-24T01:46:19.772Z,25.73
2024-01-24T01:46:33.253Z,26.83
2024-01-24T01:46:46.382Z,24.67
2024-01-24T01:46:59.319Z,24.83
2024-01-24T01:47:13.436Z,25.08
2024-01-24T01:47:26.419Z,23.20
2024-01-24T01:47:40.696Z,20.55
2024-01-24T01:47:53.744Z,21.30
2024-01-24T01:48:08.733Z,20.77
2024-01-24T01:48:22.113Z,21.42
2024-01-24T01:48:35.981Z,22.55
2024-01-24T01:48:51.397Z,27.60
2024-01-24T01:49:05.799Z,28.17
2024-01-24T01:49:21.260Z,25.02
2024-01-24T01:49:34.459Z,24.92
2024-01-24T01:49:48.828Z,24.05
2024-01-24T01:50:01.917Z,22.35
2024-01-24T01:50:16.009Z,21.85
2024-01-24T01:50:29.290Z,22.38
2024-01-24T01:50:42.294Z,22.88
2024-01-24T01:50:56.000Z,25.55
2024-01-24T01:51:09.044Z,25.83
2024-01-24T01:51:22.156Z,25.38
2024-01-24T01:51:35.797Z,22.35
2024-01-24T01:51:50.119Z,20.17
2024-01-24T01:52:03.131Z,20.63
2024-01-24T01:52:17.437Z,21.33
2024-01-24T01:52:31.965Z,21.08
2024-01-24T01:52:46.036Z,20.17
2024-01-24T01:53:00.034Z,21.10
2024-01-24T01:53:13.000Z,20.55
2024-01-24T01:53:27.056Z,19.67
2024-01-24T01:53:40.477Z,21.10
2024-01-24T01:53:53.967Z,22.25
2024-01-24T01:54:09.018Z,22.75
2024-01-24T01:54:22.122Z,25.20
2024-01-24T01:54:35.302Z,23.63
2024-01-24T01:54:49.359Z,21.13
2024-01-24T01:55:02.482Z,20.38
2024-01-24T01:55:17.123Z,23.08
2024-01-24T01:55:31.073Z,21.50
2024-01-24T01:55:44.305Z,19.67
2024-01-24T01:55:58.516Z,19.70
2024-01-24T01:56:13.686Z,20.27
2024-01-24T01:56:27.092Z,21.20
2024-01-24T01:56:40.151Z,22.60
2024-01-24T01:56:53.305Z,22.38
2024-01-24T01:57:09.785Z,21.48
2024-01-24T01:57:24.031Z,21.60
2024-01-24T01:57:39.380Z,19.65
2024-01-24T01:57:52.744Z,20.80
2024-01-24T01:58:05.929Z,24.65
2024-01-24T01:58:18.832Z,23.73
2024-01-24T01:58:31.865Z,23.27
2024-01-24T01:58:45.580Z,23.70
2024-01-24T01:58:59.275Z,22.98
2024-01-24T01:59:12.775Z,20.98
2024-01-24T01:59:28.211Z,21.63
2024-01-24T01:59:42.084Z,22.38
2024-01-24T01:59:55.202Z,20.52
2024-01-24T02:00:11.417Z,19.98
2024-01-24T02:00:25.149Z,23.17
2024-01-24T02:00:39.178Z,24.98
2024-01-24T02:00:52.469Z,23.10
2024-01-24T02:01:10.477Z,21.98
2024-01-24T02:01:25.114Z,21.50
2024-01-24T02:01:40.101Z,25.13
2024-01-24T02:01:55.148Z,27.08
2024-01-24T02:02:08.533Z,24.02
2024-01-24T02:02:21.409Z,19.95
2024-01-24T02:02:34.354Z,19.17
2024-01-24T02:02:47.705Z,19.90
2024-01-24T02:03:01.769Z,20.35
2024-01-24T02:03:14.913Z,22.83
2024-01-24T02:03:28.928Z,23.85
2024-01-24T02:03:43.764Z,24.58
2024-01-24T02:03:56.826Z,24.17
2024-01-24T02:04:09.832Z,23.15
2024-01-24T02:04:24.783Z,22.73
2024-01-24T02:04:38.014Z,24.88
2024-01-24T02:04:50.986Z,24.52
2024-01-24T02:05:04.770Z,21.00
2024-01-24T02:05:18.160Z,20.77
2024-01-24T02:05:31.666Z,21.55
2024-01-24T02:05:47.324Z,22.75
2024-01-24T02:06:01.372Z,21.70
2024-01-24T02:06:14.517Z,22.15
2024-01-24T02:06:27.968Z,23.27
2024-01-24T02:06:41.294Z,22.58
2024-01-24T02:06:56.823Z,25.05
2024-01-24T02:07:09.901Z,26.80
2024-01-24T02:07:24.045Z,26.30
2024-01-24T02:07:37.074Z,23.20
2024-01-24T02:07:50.182Z,19.63
2024-01-24T02:08:03.800Z,18.70
2024-01-24T02:08:16.863Z,18.20
2024-01-24T02:08:29.900Z,20.63
2024-01-24T02:08:44.311Z,21.25
2024-01-24T02:08:57.162Z,20.60
2024-01-24T02:09:11.731Z,23.92
2024-01-24T02:09:25.079Z,24.67
2024-01-24T02:09:38.198Z,23.40
2024-01-24T02:09:51.363Z,23.02
2024-01-24T02:10:05.124Z,23.27
2024-01-24T02:10:18.261Z,23.17
2024-01-24T02:10:31.518Z,23.38
2024-01-24T02:10:45.597Z,24.13
2024-01-24T02:10:59.439Z,22.55
2024-01-24T02:11:13.451Z,22.38
2024-01-24T02:11:26.368Z,23.42
2024-01-24T02:11:40.326Z,24.27
2024-01-24T02:11:53.296Z,24.83
2024-01-24T02:12:06.594Z,24.05
2024-01-24T02:12:19.999Z,22.00
2024-01-24T02:12:32.949Z,20.40
2024-01-24T02:12:45.909Z,19.88
2024-01-24T02:13:00.503Z,19.80
2024-01-24T02:13:13.447Z,20.80
2024-01-24T02:13:29.281Z,20.05
2024-01-24T02:13:42.565Z,21.67
2024-01-24T02:14:00.189Z,22.17
2024-01-24T02:14:13.646Z,19.67
2024-01-24T02:14:26.673Z,19.95
2024-01-24T02:14:40.563Z,18.98
2024-01-24T02:14:53.407Z,20.42
2024-01-24T02:15:07.545Z,23.17
2024-01-24T02:15:21.060Z,23.17
2024-01-24T02:15:34.063Z,21.95
2024-01-24T02:15:47.027Z,23.40
2024-01-24T02:16:00.132Z,22.80
2024-01-24T02:16:18.162Z,20.95
2024-01-24T02:16:34.308Z,23.20
2024-01-24T02:16:47.286Z,24.70
2024-01-24T02:17:00.581Z,23.38
2024-01-24T02:17:13.559Z,20.45
2024-01-24T02:17:26.649Z,23.20
2024-01-24T02:17:39.679Z,24.85
2024-01-24T02:17:52.595Z,23.02
2024-01-24T02:18:07.184Z,23.33
2024-01-24T02:18:20.171Z,23.67
2024-01-24T02:18:34.190Z,22.80
2024-01-24T02:18:47.260Z,21.75
2024-01-24T02:19:00.391Z,20.73
2024-01-24T02:19:13.443Z,21.50
2024-01-24T02:19:28.816Z,22.50
2024-01-24T02:19:42.029Z,19.92
2024-01-24T02:19:54.982Z,22.60
2024-01-24T02:20:11.193Z,23.40
2024-01-24T02:20:25.394Z,22.52
2024-01-24T02:20:40.182Z,22.05
2024-01-24T02:20:53.578Z,19.45
2024-01-24T02:21:06.701Z,21.25
2024-01-24T02:21:19.729Z,23.33
2024-01-24T02:21:32.693Z,24.95
2024-01-24T02:21:45.663Z,21.92
2024-01-24T02:21:58.793Z,20.50
2024-01-24T02:22:11.937Z,20.08
2024-01-24T02:22:24.856Z,20.90
2024-01-24T02:22:38.900Z,21.95
2024-01-24T02:22:51.932Z,21.83
2024-01-24T02:23:05.189Z,19.42
2024-01-24T02:23:19.631Z,17.55
2024-01-24T02:23:33.001Z,20.05
2024-01-24T02:23:47.565Z,20.35
2024-01-24T02:24:01.554Z,21.65
2024-01-24T02:24:15.930Z,23.58
2024-01-24T02:24:29.684Z,23.98
2024-01-24T02:24:43.882Z,22.38
2024-01-24T02:24:56.938Z,20.85
2024-01-24T02:25:10.073Z,20.13
2024-01-24T02:25:22.997Z,21.63
2024-01-24T02:25:35.918Z,25.67
2024-01-24T02:25:50.717Z,23.42
2024-01-24T02:26:05.512Z,22.17
2024-01-24T02:26:18.463Z,20.58
2024-01-24T02:26:31.371Z,21.40
2024-01-24T02:26:45.611Z,23.10
2024-01-24T02:26:58.609Z,22.40
2024-01-24T02:27:11.879Z,20.90
2024-01-24T02:27:24.911Z,22.60
2024-01-24T02:27:37.831Z,22.40
2024-01-24T02:27:51.213Z,21.83
2024-01-24T02:28:04.635Z,22.33
2024-01-24T02:28:17.836Z,22.63
2024-01-24T02:28:30.740Z,19.95
2024-01-24T02:28:44.841Z,19.00
2024-01-24T02:28:57.763Z,19.13
2024-01-24T02:29:10.678Z,21.10
2024-01-24T02:29:23.597Z,20.67
2024-01-24T02:29:36.491Z,22.65
2024-01-24T02:29:49.641Z,22.60
2024-01-24T02:30:02.609Z,23.92
2024-01-24T02:30:15.745Z,21.15
2024-01-24T02:30:28.853Z,22.10
2024-01-24T02:30:41.891Z,23.17
2024-01-24T02:30:55.893Z,22.35
2024-01-24T02:31:10.489Z,20.77
2024-01-24T02:31:23.737Z,19.02
2024-01-24T02:31:36.656Z,19.27
2024-01-24T02:31:49.591Z,20.67
2024-01-24T02:32:02.742Z,22.00
2024-01-24T02:32:15.633Z,22.27
2024-01-24T02:32:28.615Z,22.17
2024-01-24T02:32:42.058Z,21.73
2024-01-24T02:32:57.761Z,22.50
2024-01-24T02:33:10.912Z,19.92
2024-01-24T02:33:23.944Z,20.42
2024-01-24T02:33:36.987Z,22.55
2024-01-24T02:33:50.022Z,21.42
2024-01-24T02:34:03.129Z,21.48
2024-01-24T02:34:16.148Z,21.00
2024-01-24T02:34:29.455Z,21.02
2024-01-24T02:34:44.539Z,21.27
2024-01-24T02:34:57.821Z,20.90
2024-01-24T02:35:10.750Z,22.13
2024-01-24T02:35:25.756Z,21.88
2024-01-24T02:35:38.673Z,18.83
2024-01-24T02:35:51.585Z,17.30
2024-01-24T02:36:05.339Z,17.35
2024-01-24T02:36:18.354Z,16.73
2024-01-24T02:36:32.303Z,18.08
2024-01-24T02:36:45.239Z,20.55
2024-01-24T02:36:58.230Z,20.52
2024-01-24T02:37:11.334Z,21.15
2024-01-24T02:37:24.253Z,19.75
2024-01-24T02:37:38.545Z,21.90
2024-01-24T02:37:51.456Z,23.50
2024-01-24T02:38:04.788Z,22.42
2024-01-24T02:38:18.746Z,20.52
2024-01-24T02:38:31.943Z,21.95
2024-01-24T02:38:45.034Z,21.15
2024-01-24T02:38:58.985Z,18.35
2024-01-24T02:39:12.681Z,19.77
2024-01-24T02:39:27.244Z,21.10
2024-01-24T02:39:40.370Z,20.58
2024-01-24T02:39:54.385Z,22.33
2024-01-24T02:40:09.021Z,21.67
2024-01-24T02:40:22.673Z,22.25
2024-01-24T02:40:35.551Z,21.42
2024-01-24T02:40:48.445Z,20.05
2024-01-24T02:41:01.352Z,19.50
2024-01-24T02:41:14.348Z,19.00
2024-01-24T02:41:28.185Z,18.17
2024-01-24T02:41:41.825Z,17.98
2024-01-24T02:41:54.965Z,18.73
2024-01-24T02:42:08.975Z,20.70
2024-01-24T02:42:21.866Z,21.20
2024-01-24T02:42:35.119Z,20.10
2024-01-24T02:42:48.089Z,19.05
2024-01-24T02:43:01.408Z,19.70
2024-01-24T02:43:14.721Z,21.85
2024-01-24T02:43:27.610Z,20.85
2024-01-24T02:43:40.521Z,22.90
2024-01-24T02:43:54.710Z,23.33
2024-01-24T02:44:07.585Z,21.05
2024-01-24T02:44:20.485Z,20.10
2024-01-24T02:44:33.369Z,21.55
2024-01-24T02:44:46.395Z,21.15
2024-01-24T02:44:59.632Z,20.80
2024-01-24T02:45:12.664Z,19.88
2024-01-24T02:45:26.124Z,20.83
2024-01-24T02:45:39.366Z,20.73
2024-01-24T02:45:54.039Z,20.83
2024-01-24T02:46:11.295Z,18.60
2024-01-24T02:46:24.355Z,18.02
2024-01-24T02:46:37.278Z,20.85
2024-01-24T02:46:50.175Z,22.15
2024-01-24T02:47:03.125Z,21.30
2024-01-24T02:47:16.068Z,21.17
2024-01-24T02:47:30.189Z,20.73
2024-01-24T02:47:43.144Z,21.85
2024-01-24T02:47:56.673Z,19.95
2024-01-24T02:48:09.787Z,18.15
2024-01-24T02:48:22.974Z,20.50
2024-01-24T02:48:36.045Z,22.75
2024-01-24T02:48:48.995Z,21.38
2024-01-24T02:49:02.620Z,19.42
2024-01-24T02:49:17.525Z,21.45
2024-01-24T02:49:30.740Z,19.90
2024-01-24T02:49:43.734Z,18.98
2024-01-24T02:49:58.487Z,17.65
2024-01-24T02:50:14.915Z,17.85
2024-01-24T02:50:28.255Z,19.17
2024-01-24T02:50:41.108Z,19.88
2024-01-24T02:50:54.384Z,19.15
2024-01-24T02:51:08.395Z,17.73
2024-01-24T02:51:25.387Z,16.90
2024-01-24T02:51:38.389Z,18.55
2024-01-24T02:51:51.826Z,21.13
2024-01-24T02:52:05.470Z,21.20
2024-01-24T02:52:18.366Z,20.13
2024-01-24T02:52:32.233Z,20.80
2024-01-24T02:52:46.124Z,20.70
2024-01-24T02:52:58.971Z,18.25
2024-01-24T02:53:11.874Z,19.30
2024-01-24T02:53:24.724Z,19.58
2024-01-24T02:53:37.618Z,22.63
2024-01-24T02:53:50.645Z,19.67
2024-01-24T02:54:03.661Z,19.08
2024-01-24T02:54:16.568Z,20.63
2024-01-24T02:54:32.225Z,21.10
2024-01-24T02:54:45.103Z,20.90